Flight Track Log - Related Links

Times and Time Zones

All times are in EDT time to prevent confusion due to time zone crossing. See the TCF7304 flight status page for this flight to view local times or setup timezone preferences in your user account.

Time Position Orientation Groundspeed Altitude Reporting Facility
EDT Latitude Longitude Course Direction KTS MPH feet Rate Location/Type
Wed 17:52:57 44.4300 -88.1942 130° Southeast 201 231 4,600  Level Minneapolis Center
Wed 17:53:59 44.4011 -88.1078 115° Southeast 249 287 7,300 2,496 Climbing Minneapolis Center
Wed 17:54:00 44.3312 -87.7623 125° Southeast  Level FlightAware
Wed 17:55:00 44.2661 -87.6323 129° Southeast  Level FlightAware
Wed 17:55:02 44.3781 -88.0033 107° East 272 313 9,800  Level Minneapolis Center
Wed 17:56:00 44.1957 -87.5081 125° Southeast  Level FlightAware
Wed 17:56:04 44.3511 -87.8819 107° East 314 361 11,900  Level Minneapolis Center
Wed 17:57:00 44.1337 -87.3758 119° Southeast  Level FlightAware
Wed 17:57:06 44.3100 -87.7236 110° East 371 427 14,400  Level Minneapolis Center
Wed 17:58:00 44.0772 -87.2691 130° Southeast  Level FlightAware
Wed 17:58:08 44.2483 -87.6000 125° Southeast 384 442 16,500  Level Minneapolis Center
Wed 17:59:10 44.1817 -87.4722 126° Southeast 401 461 18,800 2,177 Climbing Minneapolis Center
Wed 18:00:12 44.1125 -87.3411 126° Southeast 414 476 21,000 2,032 Climbing Minneapolis Center
Wed 18:01:14 44.0389 -87.2006 126° Southeast 416 479 23,000 968 Climbing Minneapolis Center
Wed 18:02:16 43.9697 -87.0714 127° Southeast 418 481 23,000  Level Minneapolis Center
Wed 18:03:18 43.9017 -86.9422 126° Southeast 415 478 23,000  Level Minneapolis Center
Wed 18:04:20 43.8328 -86.8136 127° Southeast 415 478 23,000  Level Minneapolis Center
Wed 18:05:22 43.7631 -86.6853 127° Southeast 418 481 23,000  Level Minneapolis Center
Wed 18:06:24 43.6944 -86.5547 126° Southeast 419 482 23,000  Level Minneapolis Center
Wed 18:07:26 43.6106 -86.4006 127° Southeast 418 481 23,000  Level Minneapolis Center
Wed 18:08:34 43.5414 -86.2717 126° Southeast 419 482 23,000  Level Chicago Center
Wed 18:09:36 43.4714 -86.1414 126° Southeast 420 483 23,000  Level Chicago Center
Wed 18:10:38 43.3872 -85.9811 126° Southeast 431 496 23,000  Level Chicago Center
Wed 18:11:40 43.3544 -85.8181 105° East 438 504 23,000  Level Chicago Center
Wed 18:12:42 43.3253 -85.6558 104° East 435 501 23,000  Level Chicago Center
Wed 18:13:44 43.2969 -85.4961 104° East 431 496 23,000  Level Chicago Center
Wed 18:14:33 43.2725 -85.3569 104° East 442 509 23,000  Level Cleveland Center
Wed 18:15:33 43.2411 -85.2006 105° East 436 502 23,000  Level Cleveland Center
Wed 18:16:33 43.2139 -85.0447 103° East 430 495 23,000 -100 Level Cleveland Center
Wed 18:17:33 43.1844 -84.8858 104° East 424 488 22,800 -700 Descending Cleveland Center
Wed 18:18:33 43.1547 -84.7300 105° East 424 488 21,600 -1,250 Descending Cleveland Center
Wed 18:19:33 43.1247 -84.5800 105° East 415 478 20,300 -1,286 Descending Cleveland Center
Wed 18:19:57 43.1189 -84.5269 99° East 417 480 19,800 -1,326 Descending Chicago Center
Wed 18:20:59 43.0903 -84.3767 105° East 410 472 18,400 -1,313 Descending Chicago Center
Wed 18:21:33 43.0697 -84.2922 108° East 409 471 17,700 -1,213 Descending Cleveland Center
Wed 18:22:33 43.0408 -84.1483 105° East 403 464 16,500 -1,448 Descending Cleveland Center
Wed 18:23:00 43.0286 -84.0653 101° East 393 452 15,600 -1,500 Descending Cleveland Center
Wed 18:23:33 43.0139 -84.0078 109° East 392 451 15,000 -1,429 Descending Cleveland Center
Wed 18:24:45 42.9708 -83.8350 109° East 358 412 13,100 -1,512 Descending Cleveland Center
Wed 18:25:40 42.8994 -83.7747 148° Southeast 325 374 11,800 -1,167 Descending Cleveland Center
Wed 18:26:33 42.8339 -83.7344 156° South 319 367 11,000 -531 Descending Cleveland Center
Wed 18:27:33 42.7556 -83.7050 165° South 308 354 10,800 -687 Descending Cleveland Center
Wed 18:28:44 42.6625 -83.6722 165° South 271 312 9,500 -1,050 Descending Cleveland Center
Wed 18:29:33 42.6175 -83.6475 158° South 270 311 8,700 -1,033 Descending Cleveland Center
Wed 18:30:46 42.5789 -83.5300 114° Southeast 250 288 7,400 -1,100 Descending Cleveland Center
Wed 18:31:33 42.5594 -83.4725 115° Southeast 239 275 6,500 -785 Descending Cleveland Center
Wed 18:32:33 42.5364 -83.3925 111° Southeast 233 268 6,000 -504 Descending Cleveland Center
Wed 18:33:44 42.4842 -83.3142 132° Southeast 215 247 5,400 -818 Descending Cleveland Center
Wed 18:34:45 42.4375 -83.2589 139° Southeast 216 249 4,200 -689 Descending Cleveland Center
Wed 18:35:46 42.3853 -83.2539 176° South 178 205 4,000 -443 Descending Cleveland Center
Wed 18:36:47 42.3389 -83.2856 207° Southwest 182 209 3,300 -689 Descending Cleveland Center

Login

Don't have an account? Register now (free) for customized features, flight alerts, and more!